Station Historical Data
Daily Summary for March 25, 2017 Units:  English    Metric   Both
« Previous Day
Next Day »
Daily Weekly Monthly Yearly Custom
  High: Low: Average:
Temperature: 43.8 °F 34.4 °F 37.5 °F
Dew Point: 38.7 °F 31.5 °F 34.4 °F
Humidity: 91% 82% 88%
Wind Speed: 13.0mph 0.0mph 5.8mph
Wind Gust: 18.0mph - -
Wind- - ENE
Pressure: 30.36 in 30.10 in -
Precipitation: 0.00 in    
Historical Graphs
 
 
Tabular Data for March 25, 2017
Time Temperature Dew Point Pressure Wind Wind Speed Wind Gust Humidity Rainfall Rate (Hourly)
00:04 43.8 °F 38.7 °F 30.10 in NE 6.0 mph 12.0 mph 82% 0.00 in
00:09 43.7 °F 38.6 °F 30.10 in NE 5.0 mph 10.0 mph 82% 0.00 in
00:14 43.6 °F 38.5 °F 30.10 in NE 6.0 mph 12.0 mph 82% 0.00 in
00:19 43.6 °F 38.5 °F 30.10 in ENE 9.0 mph 11.0 mph 82% 0.00 in
00:24 43.4 °F 38.3 °F 30.10 in NE 7.0 mph 13.0 mph 82% 0.00 in
00:29 43.4 °F 38.3 °F 30.11 in NNE 7.0 mph 12.0 mph 82% 0.00 in
00:34 43.3 °F 38.2 °F 30.10 in ENE 5.0 mph 10.0 mph 82% 0.00 in
00:39 43.2 °F 38.1 °F 30.10 in NE 7.0 mph 11.0 mph 82% 0.00 in
00:44 43.2 °F 38.1 °F 30.11 in NE 4.0 mph 8.0 mph 82% 0.00 in
00:49 43.2 °F 38.1 °F 30.11 in NE 5.0 mph 8.0 mph 82% 0.00 in
00:54 43.1 °F 38.0 °F 30.12 in East 1.0 mph 7.0 mph 82% 0.01 in
00:59 43.0 °F 38.2 °F 30.13 in ENE 3.0 mph 7.0 mph 83% 0.01 in
01:04 42.9 °F 38.4 °F 30.12 in ENE 3.0 mph 9.0 mph 84% 0.02 in
01:09 42.7 °F 38.2 °F 30.12 in ENE 4.0 mph 9.0 mph 84% 0.02 in
01:14 42.5 °F 38.0 °F 30.11 in NE 5.0 mph 12.0 mph 84% 0.02 in
01:19 42.4 °F 38.2 °F 30.10 in ENE 5.0 mph 12.0 mph 85% 0.02 in
01:24 42.3 °F 38.1 °F 30.11 in ENE 3.0 mph 10.0 mph 85% 0.03 in
01:29 42.2 °F 38.3 °F 30.12 in NE 2.0 mph 6.0 mph 86% 0.04 in
01:34 42.1 °F 38.2 °F 30.12 in NE 4.0 mph 5.0 mph 86% 0.05 in
01:39 42.0 °F 38.4 °F 30.11 in NE 5.0 mph 7.0 mph 87% 0.07 in
01:44 41.8 °F 38.2 °F 30.11 in NE 2.0 mph 7.0 mph 87% 0.08 in
01:49 41.8 °F 38.5 °F 30.13 in NNE 2.0 mph 6.0 mph 88% 0.08 in
01:54 41.7 °F 38.4 °F 30.12 in ENE 4.0 mph 4.0 mph 88% 0.07 in
01:59 41.6 °F 38.3 °F 30.12 in NE 5.0 mph 7.0 mph 88% 0.07 in
02:04 41.6 °F 38.3 °F 30.13 in NE 3.0 mph 7.0 mph 88% 0.10 in
02:09 41.6 °F 38.3 °F 30.12 in NE 3.0 mph 5.0 mph 88% 0.14 in
02:14 41.5 °F 38.5 °F 30.12 in NE 3.0 mph 5.0 mph 89% 0.16 in
02:19 41.4 °F 38.4 °F 30.12 in ENE 2.0 mph 5.0 mph 89% 0.17 in
02:24 41.4 °F 38.4 °F 30.13 in ENE 1.0 mph 5.0 mph 89% 0.16 in
02:29 41.4 °F 38.4 °F 30.12 in ESE 2.0 mph 3.0 mph 89% 0.17 in
02:34 41.3 °F 38.3 °F 30.12 in ENE 2.0 mph 7.0 mph 89% 0.19 in
02:39 41.4 °F 38.7 °F 30.13 in NE 2.0 mph 4.0 mph 90% 0.18 in
02:44 41.4 °F 38.7 °F 30.12 in NE 1.0 mph 5.0 mph 90% 0.18 in
02:49 41.3 °F 38.6 °F 30.13 in NE 2.0 mph 4.0 mph 90% 0.19 in
02:54 41.3 °F 38.6 °F 30.11 in East 6.0 mph 6.0 mph 90% 0.20 in
02:59 41.2 °F 38.5 °F 30.12 in NE 3.0 mph 6.0 mph 90% 0.20 in
03:04 41.2 °F 38.5 °F 30.12 in NE 2.0 mph 6.0 mph 90% 0.16 in
03:09 41.2 °F 38.5 °F 30.12 in NE 3.0 mph 6.0 mph 90% 0.12 in
03:14 41.1 °F 38.4 °F 30.12 in NE 4.0 mph 7.0 mph 90% 0.10 in
03:19 41.1 °F 38.7 °F 30.13 in NE 3.0 mph 7.0 mph 91% 0.09 in
03:24 41.1 °F 38.7 °F 30.13 in NE 3.0 mph 5.0 mph 91% 0.09 in
03:29 41.1 °F 38.7 °F 30.13 in NE 2.0 mph 5.0 mph 91% 0.07 in
03:34 40.9 °F 38.2 °F 30.12 in NE 3.0 mph 6.0 mph 90% 0.04 in
03:39 40.8 °F 38.4 °F 30.12 in NE 4.0 mph 7.0 mph 91% 0.03 in
03:44 40.7 °F 38.3 °F 30.12 in NE 4.0 mph 10.0 mph 91% 0.02 in
03:49 40.7 °F 38.3 °F 30.12 in NE 4.0 mph 8.0 mph 91% 0.01 in
03:54 40.7 °F 38.3 °F 30.12 in Calm   6.0 mph 91% 0.00 in
03:59 40.7 °F 38.3 °F 30.13 in NNE 3.0 mph 6.0 mph 91% 0.00 in
04:09 40.6 °F 38.2 °F 30.12 in NNE 3.0 mph 6.0 mph 91% 0.00 in
04:14 40.5 °F 38.1 °F 30.12 in NE 3.0 mph 7.0 mph 91% 0.00 in
04:19 40.4 °F 38.0 °F 30.13 in NE 4.0 mph 7.0 mph 91% 0.01 in
04:24 40.3 °F 37.9 °F 30.13 in NE 4.0 mph 9.0 mph 91% 0.01 in
04:29 40.2 °F 37.8 °F 30.14 in NE 5.0 mph 6.0 mph 91% 0.01 in
04:39 40.0 °F 37.6 °F 30.13 in NE 5.0 mph 11.0 mph 91% 0.01 in
04:44 39.8 °F 37.4 °F 30.12 in ENE 9.0 mph 9.0 mph 91% 0.01 in
04:49 39.7 °F 37.3 °F 30.12 in NE 5.0 mph 11.0 mph 91% 0.01 in
04:54 39.5 °F 37.1 °F 30.14 in NNE 3.0 mph 9.0 mph 91% 0.02 in
04:59 39.4 °F 37.0 °F 30.13 in NNE 3.0 mph 9.0 mph 91% 0.02 in
05:04 39.3 °F 36.9 °F 30.13 in NE 4.0 mph 9.0 mph 91% 0.02 in
05:09 39.1 °F 36.7 °F 30.12 in NE 4.0 mph 11.0 mph 91% 0.02 in
05:14 39.0 °F 36.6 °F 30.13 in NE 5.0 mph 11.0 mph 91% 0.02 in
05:19 39.0 °F 36.6 °F 30.13 in NE 5.0 mph 11.0 mph 91% 0.01 in
05:24 38.9 °F 36.5 °F 30.12 in NE 5.0 mph 11.0 mph 91% 0.01 in
05:29 38.8 °F 36.4 °F 30.13 in NE 5.0 mph 12.0 mph 91% 0.01 in
05:34 38.8 °F 36.4 °F 30.14 in NE 5.0 mph 12.0 mph 91% 0.01 in
05:39 38.7 °F 36.3 °F 30.14 in NE 7.0 mph 12.0 mph 91% 0.01 in
05:44 38.6 °F 36.2 °F 30.14 in NNE 5.0 mph 11.0 mph 91% 0.01 in
05:49 38.6 °F 36.2 °F 30.15 in NE 3.0 mph 10.0 mph 91% 0.01 in
05:54 38.5 °F 36.1 °F 30.14 in NE 7.0 mph 11.0 mph 91% 0.00 in
05:59 38.3 °F 35.9 °F 30.15 in NE 13.0 mph 14.0 mph 91% 0.00 in
06:04 38.2 °F 35.8 °F 30.14 in NE 7.0 mph 14.0 mph 91% 0.00 in
06:09 38.0 °F 35.6 °F 30.14 in NE 7.0 mph 16.0 mph 91% 0.00 in
06:14 37.9 °F 35.5 °F 30.14 in NE 8.0 mph 16.0 mph 91% 0.00 in
06:19 37.8 °F 35.4 °F 30.14 in NE 7.0 mph 14.0 mph 91% 0.00 in
06:24 37.7 °F 35.3 °F 30.14 in NE 6.0 mph 11.0 mph 91% 0.00 in
06:29 37.7 °F 35.3 °F 30.15 in NE 6.0 mph 14.0 mph 91% 0.00 in
06:34 37.5 °F 35.1 °F 30.15 in NE 7.0 mph 14.0 mph 91% 0.00 in
06:44 37.4 °F 35.0 °F 30.14 in ENE 7.0 mph 14.0 mph 91% 0.00 in
06:49 37.4 °F 35.0 °F 30.14 in NE 9.0 mph 12.0 mph 91% 0.00 in
06:54 37.3 °F 34.9 °F 30.14 in NE 6.0 mph 14.0 mph 91% 0.00 in
06:59 37.2 °F 34.8 °F 30.15 in NE 4.0 mph 11.0 mph 91% 0.00 in
07:04 37.2 °F 34.8 °F 30.16 in NNE 8.0 mph 12.0 mph 91% 0.00 in
07:09 37.2 °F 34.8 °F 30.16 in NE 7.0 mph 12.0 mph 91% 0.00 in
07:14 37.2 °F 34.8 °F 30.17 in NE 6.0 mph 12.0 mph 91% 0.00 in
07:19 37.2 °F 34.8 °F 30.17 in NE 6.0 mph 12.0 mph 91% 0.00 in
07:24 37.1 °F 34.7 °F 30.17 in NE 6.0 mph 12.0 mph 91% 0.00 in
07:29 37.1 °F 34.7 °F 30.17 in NE 6.0 mph 12.0 mph 91% 0.00 in
07:34 37.1 °F 34.7 °F 30.17 in NE 5.0 mph 12.0 mph 91% 0.00 in
07:39 37.0 °F 34.6 °F 30.17 in NE 6.0 mph 12.0 mph 91% 0.00 in
07:49 37.0 °F 34.6 °F 30.16 in NE 4.0 mph 11.0 mph 91% 0.01 in
07:54 37.0 °F 34.6 °F 30.17 in NE 4.0 mph 11.0 mph 91% 0.01 in
07:59 37.0 °F 34.6 °F 30.18 in NE 3.0 mph 10.0 mph 91% 0.01 in
08:04 36.9 °F 34.5 °F 30.18 in NNE 5.0 mph 11.0 mph 91% 0.01 in
08:09 36.9 °F 34.5 °F 30.18 in NE 7.0 mph 12.0 mph 91% 0.01 in
08:19 36.7 °F 34.3 °F 30.19 in NE 7.0 mph 14.0 mph 91% 0.01 in
08:24 36.5 °F 34.1 °F 30.20 in NE 7.0 mph 15.0 mph 91% 0.01 in
08:29 36.4 °F 34.0 °F 30.21 in NE 7.0 mph 15.0 mph 91% 0.01 in
08:34 36.4 °F 34.0 °F 30.21 in NE 7.0 mph 14.0 mph 91% 0.01 in
08:39 36.3 °F 33.9 °F 30.21 in NE 6.0 mph 13.0 mph 91% 0.02 in
08:44 36.4 °F 34.0 °F 30.22 in NE 5.0 mph 12.0 mph 91% 0.03 in
08:49 36.2 °F 33.8 °F 30.21 in NNE 4.0 mph 13.0 mph 91% 0.03 in
09:04 35.9 °F 33.5 °F 30.22 in NE 4.0 mph 18.0 mph 91% 0.05 in
09:09 35.8 °F 33.4 °F 30.22 in East 7.0 mph 15.0 mph 91% 0.06 in
09:14 35.7 °F 33.3 °F 30.22 in ENE 5.0 mph 13.0 mph 91% 0.07 in
09:19 35.7 °F 33.3 °F 30.23 in NE 6.0 mph 13.0 mph 91% 0.07 in
09:24 35.6 °F 33.2 °F 30.23 in NE 7.0 mph 17.0 mph 91% 0.08 in
09:34 35.5 °F 33.1 °F 30.24 in NE 7.0 mph 17.0 mph 91% 0.10 in
09:39 35.5 °F 33.1 °F 30.24 in NE 7.0 mph 13.0 mph 91% 0.10 in
09:44 35.5 °F 33.1 °F 30.23 in NE 11.0 mph 12.0 mph 91% 0.11 in
09:49 35.5 °F 33.1 °F 30.24 in NE 6.0 mph 13.0 mph 91% 0.11 in
09:54 35.4 °F 33.0 °F 30.24 in NE 7.0 mph 13.0 mph 91% 0.12 in
09:59 35.4 °F 33.0 °F 30.24 in NE 7.0 mph 12.0 mph 91% 0.13 in
10:04 35.4 °F 33.0 °F 30.25 in NNE 5.0 mph 11.0 mph 91% 0.13 in
10:09 35.5 °F 33.1 °F 30.25 in NE 5.0 mph 11.0 mph 91% 0.13 in
10:14 35.5 °F 33.1 °F 30.26 in NE 6.0 mph 13.0 mph 91% 0.12 in
10:19 35.5 °F 33.1 °F 30.26 in ENE 7.0 mph 10.0 mph 91% 0.12 in
10:24 35.5 °F 33.1 °F 30.26 in ENE 7.0 mph 13.0 mph 91% 0.12 in
10:29 35.6 °F 33.2 °F 30.25 in NE 7.0 mph 13.0 mph 91% 0.11 in
10:34 35.5 °F 33.1 °F 30.26 in NE 5.0 mph 16.0 mph 91% 0.11 in
10:39 35.5 °F 33.1 °F 30.26 in NNE 6.0 mph 13.0 mph 91% 0.11 in
10:44 35.4 °F 33.0 °F 30.27 in East 7.0 mph 14.0 mph 91% 0.09 in
10:49 35.5 °F 33.1 °F 30.27 in NE 4.0 mph 12.0 mph 91% 0.09 in
10:54 35.5 °F 33.1 °F 30.27 in NE 6.0 mph 13.0 mph 91% 0.09 in
10:59 35.5 °F 33.1 °F 30.27 in NE 6.0 mph 13.0 mph 91% 0.08 in
11:04 35.5 °F 33.1 °F 30.28 in NE 8.0 mph 14.0 mph 91% 0.07 in
11:09 35.6 °F 33.2 °F 30.28 in NE 7.0 mph 14.0 mph 91% 0.06 in
11:14 35.5 °F 33.1 °F 30.30 in NE 7.0 mph 17.0 mph 91% 0.07 in
11:19 35.5 °F 32.9 °F 30.30 in NE 11.0 mph 14.0 mph 90% 0.07 in
11:24 35.4 °F 32.8 °F 30.30 in NE 7.0 mph 14.0 mph 90% 0.07 in
11:29 35.5 °F 32.9 °F 30.31 in ENE 3.0 mph 13.0 mph 90% 0.08 in
11:34 35.5 °F 32.9 °F 30.31 in NE 4.0 mph 13.0 mph 90% 0.07 in
11:39 35.5 °F 32.9 °F 30.31 in NE 12.0 mph 14.0 mph 90% 0.06 in
11:44 35.7 °F 33.1 °F 30.31 in NE 8.0 mph 15.0 mph 90% 0.07 in
11:49 35.7 °F 33.1 °F 30.30 in NE 6.0 mph 12.0 mph 90% 0.06 in
11:54 35.7 °F 33.1 °F 30.31 in NE 7.0 mph 16.0 mph 90% 0.05 in
11:59 35.7 °F 33.1 °F 30.31 in NE 7.0 mph 16.0 mph 90% 0.05 in
12:04 35.7 °F 33.1 °F 30.31 in NE 7.0 mph 12.0 mph 90% 0.05 in
12:09 35.7 °F 33.1 °F 30.31 in NE 7.0 mph 14.0 mph 90% 0.05 in
12:14 35.7 °F 33.1 °F 30.31 in NE 8.0 mph 12.0 mph 90% 0.04 in
12:19 35.7 °F 33.1 °F 30.31 in ENE 4.0 mph 14.0 mph 90% 0.05 in
12:24 35.7 °F 33.1 °F 30.31 in East 6.0 mph 12.0 mph 90% 0.04 in
12:29 35.7 °F 33.1 °F 30.31 in NE 6.0 mph 12.0 mph 90% 0.04 in
12:34 35.6 °F 33.0 °F 30.32 in ENE 6.0 mph 11.0 mph 90% 0.05 in
12:39 35.7 °F 33.1 °F 30.32 in ENE 6.0 mph 11.0 mph 90% 0.05 in
12:44 35.8 °F 33.2 °F 30.32 in ENE 5.0 mph 11.0 mph 90% 0.04 in
12:49 35.9 °F 33.3 °F 30.31 in ENE 5.0 mph 11.0 mph 90% 0.05 in
12:54 35.8 °F 33.2 °F 30.31 in ENE 5.0 mph 13.0 mph 90% 0.05 in
12:59 35.9 °F 33.0 °F 30.31 in East 3.0 mph 13.0 mph 89% 0.05 in
13:04 36.0 °F 33.4 °F 30.32 in ENE 5.0 mph 13.0 mph 90% 0.05 in
13:09 36.1 °F 33.5 °F 30.31 in East 5.0 mph 11.0 mph 90% 0.06 in
13:14 36.2 °F 33.5 °F 30.31 in ENE 11.0 mph 11.0 mph 90% 0.06 in
13:19 36.2 °F 33.3 °F 30.31 in East 7.0 mph 15.0 mph 89% 0.06 in
13:24 36.3 °F 33.4 °F 30.32 in NE 4.0 mph 10.0 mph 89% 0.06 in
13:29 36.3 °F 33.4 °F 30.32 in NE 5.0 mph 9.0 mph 89% 0.06 in
13:34 36.2 °F 33.3 °F 30.32 in ENE 5.0 mph 12.0 mph 89% 0.05 in
13:39 36.2 °F 33.3 °F 30.32 in NE 6.0 mph 12.0 mph 89% 0.06 in
13:44 36.2 °F 33.3 °F 30.32 in NE 6.0 mph 12.0 mph 89% 0.07 in
13:49 36.2 °F 33.3 °F 30.32 in NE 6.0 mph 12.0 mph 89% 0.07 in
13:54 36.2 °F 33.5 °F 30.32 in NE 6.0 mph 12.0 mph 90% 0.08 in
13:59 36.1 °F 33.5 °F 30.32 in NE 8.0 mph 10.0 mph 90% 0.08 in
14:04 36.2 °F 33.5 °F 30.32 in NE 6.0 mph 11.0 mph 90% 0.09 in
14:09 36.1 °F 33.5 °F 30.32 in NNE 6.0 mph 14.0 mph 90% 0.09 in
14:14 36.1 °F 33.5 °F 30.31 in East 10.0 mph 14.0 mph 90% 0.09 in
14:19 36.1 °F 33.5 °F 30.30 in NE 6.0 mph 13.0 mph 90% 0.08 in
14:24 36.5 °F 33.8 °F 30.29 in ENE 2.0 mph 14.0 mph 90% 0.08 in
14:29 36.9 °F 34.2 °F 30.32 in NNE 9.0 mph 11.0 mph 90% 0.07 in
14:34 36.9 °F 34.2 °F 30.30 in ESE 4.0 mph 11.0 mph 90% 0.07 in
14:39 37.2 °F 34.3 °F 30.32 in ENE 6.0 mph 12.0 mph 89% 0.06 in
14:44 37.0 °F 34.1 °F 30.30 in NE 6.0 mph 14.0 mph 89% 0.05 in
14:49 37.0 °F 34.1 °F 30.31 in ENE 7.0 mph 14.0 mph 89% 0.04 in
14:54 36.9 °F 33.7 °F 30.32 in ENE 7.0 mph 16.0 mph 88% 0.03 in
14:59 37.1 °F 34.2 °F 30.31 in ENE 6.0 mph 16.0 mph 89% 0.02 in
15:04 37.4 °F 34.2 °F 30.31 in ENE 5.0 mph 11.0 mph 88% 0.01 in
15:09 37.6 °F 34.4 °F 30.32 in NE 7.0 mph 13.0 mph 88% 0.00 in
15:14 37.4 °F 33.9 °F 30.32 in ENE 10.0 mph 13.0 mph 87% 0.00 in
15:19 37.3 °F 33.8 °F 30.33 in NE 11.0 mph 14.0 mph 87% 0.00 in
15:24 37.1 °F 33.6 °F 30.33 in ENE 4.0 mph 16.0 mph 87% 0.00 in
15:29 37.0 °F 33.5 °F 30.32 in East 7.0 mph 11.0 mph 87% 0.00 in
15:34 37.0 °F 33.5 °F 30.33 in ENE 4.0 mph 13.0 mph 87% 0.00 in
15:39 36.9 °F 33.1 °F 30.32 in ENE 7.0 mph 15.0 mph 86% 0.00 in
15:44 36.9 °F 33.1 °F 30.32 in ENE 8.0 mph 16.0 mph 86% 0.00 in
15:49 36.8 °F 33.3 °F 30.32 in NE 9.0 mph 16.0 mph 87% 0.00 in
15:54 36.7 °F 33.2 °F 30.32 in NE 8.0 mph 15.0 mph 87% 0.00 in
15:59 36.8 °F 33.3 °F 30.34 in NE 7.0 mph 15.0 mph 87% 0.00 in
16:04 36.9 °F 33.4 °F 30.33 in NE 7.0 mph 14.0 mph 87% 0.00 in
16:09 37.0 °F 33.5 °F 30.33 in ESE 7.0 mph 10.0 mph 87% 0.00 in
16:14 37.0 °F 33.5 °F 30.33 in ENE 9.0 mph 13.0 mph 87% 0.00 in
16:19 37.3 °F 33.8 °F 30.33 in ENE 7.0 mph 12.0 mph 87% 0.00 in
16:24 37.7 °F 34.2 °F 30.33 in ENE 5.0 mph 14.0 mph 87% 0.00 in
16:29 38.1 °F 34.6 °F 30.32 in East 10.0 mph 15.0 mph 87% 0.00 in
16:34 38.2 °F 34.4 °F 30.32 in NE 13.0 mph 15.0 mph 86% 0.00 in
16:39 38.2 °F 34.4 °F 30.33 in NE 8.0 mph 16.0 mph 86% 0.00 in
16:49 38.3 °F 33.9 °F 30.33 in NE 8.0 mph 16.0 mph 84% 0.00 in
16:54 38.2 °F 33.8 °F 30.33 in ENE 8.0 mph 16.0 mph 84% 0.00 in
16:59 38.2 °F 34.1 °F 30.33 in ENE 7.0 mph 14.0 mph 85% 0.00 in
17:04 38.1 °F 34.0 °F 30.32 in ENE 6.0 mph 14.0 mph 85% 0.00 in
17:09 38.1 °F 34.0 °F 30.33 in NE 3.0 mph 13.0 mph 85% 0.00 in
17:14 37.9 °F 33.8 °F 30.33 in NE 4.0 mph 13.0 mph 85% 0.00 in
17:19 37.7 °F 33.6 °F 30.33 in ENE 6.0 mph 15.0 mph 85% 0.00 in
17:24 37.6 °F 33.5 °F 30.33 in East 10.0 mph 14.0 mph 85% 0.00 in
17:29 37.6 °F 33.5 °F 30.33 in ESE 4.0 mph 13.0 mph 85% 0.00 in
17:34 37.5 °F 33.4 °F 30.33 in ENE 8.0 mph 12.0 mph 85% 0.00 in
17:39 37.5 °F 33.4 °F 30.32 in ENE 11.0 mph 14.0 mph 85% 0.00 in
17:44 37.4 °F 33.3 °F 30.33 in East 7.0 mph 15.0 mph 85% 0.00 in
17:49 37.4 °F 33.3 °F 30.33 in ENE 8.0 mph 15.0 mph 85% 0.00 in
17:54 37.3 °F 33.5 °F 30.33 in ENE 7.0 mph 14.0 mph 86% 0.00 in
18:04 37.1 °F 33.3 °F 30.33 in ENE 7.0 mph 13.0 mph 86% 0.00 in
18:09 37.0 °F 33.2 °F 30.33 in NE 7.0 mph 14.0 mph 86% 0.00 in
18:14 36.9 °F 33.1 °F 30.33 in East 7.0 mph 13.0 mph 86% 0.00 in
18:19 36.8 °F 33.0 °F 30.33 in ENE 6.0 mph 13.0 mph 86% 0.00 in
18:24 37.0 °F 33.2 °F 30.32 in ENE 5.0 mph 11.0 mph 86% 0.00 in
18:29 36.9 °F 33.4 °F 30.32 in ENE 11.0 mph 13.0 mph 87% 0.00 in
18:34 36.8 °F 33.0 °F 30.33 in NNE 6.0 mph 11.0 mph 86% 0.00 in
18:39 36.6 °F 32.8 °F 30.33 in NE 7.0 mph 16.0 mph 86% 0.00 in
18:44 36.6 °F 33.1 °F 30.34 in NE 3.0 mph 13.0 mph 87% 0.00 in
18:49 36.6 °F 33.1 °F 30.35 in ENE 5.0 mph 13.0 mph 87% 0.00 in
18:54 36.7 °F 33.2 °F 30.34 in ENE 4.0 mph 13.0 mph 87% 0.00 in
18:59 36.6 °F 33.1 °F 30.34 in ENE 5.0 mph 13.0 mph 87% 0.00 in
19:04 36.5 °F 32.7 °F 30.34 in East 6.0 mph 10.0 mph 86% 0.00 in
19:09 36.4 °F 32.6 °F 30.34 in ENE 10.0 mph 16.0 mph 86% 0.00 in
19:14 36.3 °F 32.5 °F 30.34 in ENE 7.0 mph 13.0 mph 86% 0.00 in
19:19 36.4 °F 32.6 °F 30.33 in ENE 6.0 mph 13.0 mph 86% 0.00 in
19:24 36.4 °F 32.6 °F 30.33 in ENE 6.0 mph 14.0 mph 86% 0.00 in
19:29 36.3 °F 32.5 °F 30.33 in ENE 6.0 mph 14.0 mph 86% 0.00 in
19:34 36.2 °F 32.4 °F 30.34 in ENE 6.0 mph 14.0 mph 86% 0.00 in
19:39 36.1 °F 32.3 °F 30.34 in East 5.0 mph 14.0 mph 86% 0.00 in
19:49 36.1 °F 32.3 °F 30.34 in ENE 8.0 mph 13.0 mph 86% 0.00 in
19:54 36.1 °F 32.3 °F 30.34 in ENE 6.0 mph 13.0 mph 86% 0.00 in
20:04 36.1 °F 32.3 °F 30.33 in East 11.0 mph 14.0 mph 86% 0.00 in
20:09 36.1 °F 32.3 °F 30.32 in ESE 5.0 mph 15.0 mph 86% 0.00 in
20:14 36.0 °F 32.2 °F 30.33 in ENE 4.0 mph 15.0 mph 86% 0.00 in
20:19 36.0 °F 32.2 °F 30.34 in NE 6.0 mph 9.0 mph 86% 0.00 in
20:24 35.9 °F 32.1 °F 30.34 in NNE 3.0 mph 13.0 mph 86% 0.00 in
20:29 35.9 °F 32.1 °F 30.34 in ENE 7.0 mph 13.0 mph 86% 0.00 in
20:34 35.9 °F 32.1 °F 30.34 in ENE 6.0 mph 13.0 mph 86% 0.00 in
20:39 35.9 °F 32.1 °F 30.35 in ENE 6.0 mph 11.0 mph 86% 0.00 in
20:44 35.9 °F 32.1 °F 30.35 in ENE 6.0 mph 15.0 mph 86% 0.00 in
20:49 35.8 °F 32.0 °F 30.35 in ENE 7.0 mph 15.0 mph 86% 0.00 in
20:54 35.9 °F 32.1 °F 30.35 in ENE 7.0 mph 15.0 mph 86% 0.00 in
20:59 35.9 °F 32.1 °F 30.35 in NE 6.0 mph 14.0 mph 86% 0.00 in
21:04 35.9 °F 32.1 °F 30.35 in NNE 4.0 mph 13.0 mph 86% 0.00 in
21:09 35.9 °F 32.1 °F 30.35 in East 3.0 mph 14.0 mph 86% 0.00 in
21:14 35.8 °F 32.0 °F 30.35 in NE 8.0 mph 13.0 mph 86% 0.00 in
21:19 35.9 °F 32.1 °F 30.36 in East 6.0 mph 15.0 mph 86% 0.00 in
21:24 35.8 °F 32.0 °F 30.36 in ENE 4.0 mph 11.0 mph 86% 0.00 in
21:29 35.7 °F 31.9 °F 30.35 in SE 4.0 mph 12.0 mph 86% 0.00 in
21:34 35.6 °F 31.8 °F 30.35 in ENE 6.0 mph 12.0 mph 86% 0.00 in
21:39 35.5 °F 31.7 °F 30.35 in ENE 6.0 mph 13.0 mph 86% 0.00 in
21:44 35.4 °F 31.6 °F 30.35 in ENE 8.0 mph 15.0 mph 86% 0.00 in
21:49 35.5 °F 31.7 °F 30.35 in ENE 8.0 mph 15.0 mph 86% 0.00 in
21:54 35.4 °F 31.6 °F 30.34 in ENE 8.0 mph 16.0 mph 86% 0.00 in
21:59 35.4 °F 31.6 °F 30.34 in NE 7.0 mph 15.0 mph 86% 0.00 in
22:04 35.3 °F 31.5 °F 30.35 in ENE 7.0 mph 15.0 mph 86% 0.00 in
22:09 35.3 °F 31.8 °F 30.35 in NE 7.0 mph 17.0 mph 87% 0.00 in
22:14 35.2 °F 31.7 °F 30.34 in NE 11.0 mph 16.0 mph 87% 0.00 in
22:19 35.3 °F 31.8 °F 30.34 in East 5.0 mph 15.0 mph 87% 0.00 in
22:24 35.2 °F 31.7 °F 30.34 in NE 4.0 mph 16.0 mph 87% 0.01 in
22:29 35.1 °F 31.6 °F 30.35 in East 3.0 mph 11.0 mph 87% 0.01 in
22:34 35.1 °F 31.9 °F 30.36 in ENE 7.0 mph 17.0 mph 88% 0.01 in
22:39 35.1 °F 31.9 °F 30.36 in NE 6.0 mph 17.0 mph 88% 0.01 in
22:44 35.0 °F 31.8 °F 30.36 in NE 13.0 mph 13.0 mph 88% 0.01 in
22:49 34.9 °F 31.7 °F 30.35 in NE 6.0 mph 12.0 mph 88% 0.01 in
22:54 34.8 °F 31.6 °F 30.35 in NE 7.0 mph 14.0 mph 88% 0.01 in
22:59 34.8 °F 31.9 °F 30.35 in East 3.0 mph 13.0 mph 89% 0.01 in
23:04 34.7 °F 31.5 °F 30.35 in ENE 6.0 mph 14.0 mph 88% 0.01 in
23:09 34.7 °F 31.8 °F 30.34 in ENE 5.0 mph 14.0 mph 89% 0.01 in
23:14 34.7 °F 31.8 °F 30.34 in ENE 5.0 mph 14.0 mph 89% 0.01 in
23:19 34.7 °F 31.8 °F 30.34 in ENE 6.0 mph 14.0 mph 89% 0.01 in
23:24 34.6 °F 31.7 °F 30.34 in ENE 6.0 mph 15.0 mph 89% 0.00 in
23:29 34.6 °F 31.7 °F 30.34 in ENE 6.0 mph 15.0 mph 89% 0.00 in
23:34 34.6 °F 31.7 °F 30.34 in NE 6.0 mph 14.0 mph 89% 0.01 in
23:39 34.5 °F 31.6 °F 30.34 in ENE 6.0 mph 14.0 mph 89% 0.01 in
23:44 34.5 °F 31.6 °F 30.34 in East 5.0 mph 12.0 mph 89% 0.01 in
23:49 34.6 °F 31.7 °F 30.33 in East 3.0 mph 11.0 mph 89% 0.01 in
23:54 34.5 °F 31.6 °F 30.33 in NE 8.0 mph 13.0 mph 89% 0.01 in
23:59 34.4 °F 31.5 °F 30.33 in ENE 7.0 mph 12.0 mph 89% 0.01 in
Buffalo, New York, USA
Compliments of Weather Underground - 2.25 mb